createdAt,value
2022-09-30T00:01:39.787Z,14.91
2022-09-30T00:04:11.889Z,14.89
2022-09-30T00:06:40.009Z,14.91
2022-09-30T00:09:08.441Z,14.93
2022-09-30T00:11:39.374Z,14.96
2022-09-30T00:14:08.457Z,14.98
2022-09-30T00:16:38.094Z,14.95
2022-09-30T00:19:06.609Z,14.97
2022-09-30T00:21:36.043Z,15.00
2022-09-30T00:24:05.690Z,15.04
2022-09-30T00:26:34.281Z,15.09
2022-09-30T00:29:03.222Z,15.13
2022-09-30T00:31:33.246Z,15.18
2022-09-30T00:34:11.810Z,15.19
2022-09-30T00:36:44.608Z,15.26
2022-09-30T00:39:15.005Z,15.30
2022-09-30T00:41:43.418Z,15.37
2022-09-30T00:44:51.290Z,15.38
2022-09-30T00:47:43.510Z,15.38
2022-09-30T00:50:30.846Z,15.42
2022-09-30T00:53:08.965Z,15.47
2022-09-30T00:55:47.396Z,15.52
2022-09-30T00:58:19.249Z,15.59
2022-09-30T01:00:48.352Z,15.62
2022-09-30T01:03:16.402Z,15.65
2022-09-30T01:05:44.674Z,15.65
2022-09-30T01:08:14.145Z,15.61
2022-09-30T01:10:42.211Z,15.60
2022-09-30T01:13:10.334Z,15.62
2022-09-30T01:15:51.385Z,15.63
2022-09-30T01:18:27.313Z,15.63
2022-09-30T01:21:34.801Z,15.59
2022-09-30T01:24:25.646Z,15.51
2022-09-30T01:27:13.439Z,15.46
2022-09-30T01:30:09.510Z,15.39
2022-09-30T01:33:01.837Z,15.38
2022-09-30T01:35:40.053Z,15.40
2022-09-30T01:38:15.072Z,15.40
2022-09-30T01:40:49.629Z,15.39
2022-09-30T01:43:29.760Z,15.34
2022-09-30T01:46:00.324Z,15.42
2022-09-30T01:48:42.551Z,15.40
2022-09-30T01:51:18.137Z,15.36
2022-09-30T01:53:51.331Z,15.34
2022-09-30T01:56:23.780Z,15.31
2022-09-30T01:58:55.193Z,15.28
2022-09-30T02:01:31.709Z,15.23
2022-09-30T02:04:06.923Z,15.19
2022-09-30T02:06:39.598Z,15.16
2022-09-30T02:09:13.315Z,15.13
2022-09-30T02:11:42.985Z,15.09
2022-09-30T02:14:16.258Z,15.03
2022-09-30T02:16:48.302Z,15.00
2022-09-30T02:19:23.372Z,14.95
2022-09-30T02:21:57.043Z,14.88
2022-09-30T02:24:27.779Z,14.87
2022-09-30T02:26:59.502Z,14.82
2022-09-30T02:29:31.189Z,14.77
2022-09-30T02:32:06.229Z,14.74
2022-09-30T02:34:39.372Z,14.71
2022-09-30T02:37:13.290Z,14.66
2022-09-30T02:39:45.729Z,14.60
2022-09-30T02:42:20.291Z,14.52
2022-09-30T02:44:49.980Z,14.44
2022-09-30T02:47:26.734Z,14.39
2022-09-30T02:50:01.877Z,14.30
2022-09-30T02:52:43.901Z,14.20
2022-09-30T02:55:19.830Z,14.13
2022-09-30T02:57:58.996Z,14.10
2022-09-30T03:00:27.790Z,14.10
2022-09-30T03:03:01.597Z,14.10
2022-09-30T03:05:31.055Z,14.09
2022-09-30T03:07:59.259Z,14.05
2022-09-30T03:10:27.295Z,14.04
2022-09-30T03:13:16.542Z,13.99
2022-09-30T03:15:57.190Z,13.94
2022-09-30T03:18:48.230Z,13.89
2022-09-30T03:21:33.942Z,13.84
2022-09-30T03:24:23.678Z,13.81
2022-09-30T03:27:01.750Z,13.82
2022-09-30T03:29:39.236Z,13.80
2022-09-30T03:32:19.938Z,13.76
2022-09-30T03:35:13.545Z,13.71
2022-09-30T03:37:52.886Z,13.70
2022-09-30T03:40:28.931Z,13.70
2022-09-30T03:43:01.790Z,13.70
2022-09-30T03:45:34.673Z,13.70
2022-09-30T03:48:06.470Z,13.69
2022-09-30T03:50:36.999Z,13.68
2022-09-30T03:53:12.649Z,13.65
2022-09-30T03:55:49.370Z,13.61
2022-09-30T03:58:18.991Z,13.60
2022-09-30T04:00:50.733Z,13.54
2022-09-30T04:03:20.749Z,13.50
2022-09-30T04:05:49.332Z,13.49
2022-09-30T04:08:18.842Z,13.49
2022-09-30T04:10:47.090Z,13.48
2022-09-30T04:13:15.107Z,13.51
2022-09-30T04:15:43.114Z,13.47
2022-09-30T04:18:11.126Z,13.44
2022-09-30T04:20:39.715Z,13.45
2022-09-30T04:23:07.790Z,13.43
2022-09-30T04:25:37.210Z,13.39
2022-09-30T04:28:05.237Z,13.35
2022-09-30T04:30:33.806Z,13.34
2022-09-30T04:33:01.936Z,13.31
2022-09-30T04:35:30.363Z,13.32
2022-09-30T04:37:58.531Z,13.32
2022-09-30T04:40:26.638Z,13.29
2022-09-30T04:42:58.583Z,13.23
2022-09-30T04:45:26.690Z,13.20
2022-09-30T04:47:54.968Z,13.15
2022-09-30T04:50:23.127Z,13.07
2022-09-30T04:52:51.866Z,13.03
2022-09-30T04:55:19.922Z,12.97
2022-09-30T04:57:47.998Z,12.92
2022-09-30T05:00:17.450Z,12.87
2022-09-30T05:02:45.931Z,12.81
2022-09-30T05:05:14.217Z,12.74
2022-09-30T05:07:42.247Z,12.67
2022-09-30T05:10:11.584Z,12.62
2022-09-30T05:12:41.007Z,12.60
2022-09-30T05:15:10.445Z,12.56
2022-09-30T05:17:39.856Z,12.50
2022-09-30T05:20:10.871Z,12.46
2022-09-30T05:22:39.467Z,12.43
2022-09-30T05:25:08.300Z,12.44
2022-09-30T05:27:36.409Z,12.41
2022-09-30T05:30:06.731Z,12.36
2022-09-30T05:32:34.902Z,12.32
2022-09-30T05:35:04.648Z,12.28
2022-09-30T05:37:32.669Z,12.26
2022-09-30T05:40:01.166Z,12.25
2022-09-30T05:42:29.179Z,12.23
2022-09-30T05:44:57.216Z,12.25
2022-09-30T05:47:25.323Z,12.23
2022-09-30T05:49:56.107Z,12.26
2022-09-30T05:52:25.979Z,12.26
2022-09-30T05:54:54.253Z,12.27
2022-09-30T05:57:22.266Z,12.33
2022-09-30T05:59:51.027Z,12.41
2022-09-30T06:02:19.149Z,12.47
2022-09-30T06:04:47.200Z,12.50
2022-09-30T06:07:15.242Z,12.55
2022-09-30T06:09:46.136Z,12.61
2022-09-30T06:12:14.280Z,12.67
2022-09-30T06:14:42.297Z,12.76
2022-09-30T06:17:10.384Z,12.86
2022-09-30T06:19:40.292Z,12.88
2022-09-30T06:22:08.335Z,12.92
2022-09-30T06:24:36.517Z,12.95
2022-09-30T06:27:05.947Z,13.01
2022-09-30T06:29:33.962Z,13.08
2022-09-30T06:32:02.788Z,13.16
2022-09-30T06:34:30.921Z,13.22
2022-09-30T06:36:59.087Z,13.27
2022-09-30T06:39:28.205Z,13.35
2022-09-30T06:41:56.434Z,13.44
2022-09-30T06:44:28.430Z,13.49
2022-09-30T06:46:56.536Z,13.50
2022-09-30T06:49:25.041Z,13.56
2022-09-30T06:51:53.338Z,13.66
2022-09-30T06:54:21.995Z,13.77
2022-09-30T06:56:53.412Z,13.83
2022-09-30T06:59:21.478Z,13.97
2022-09-30T07:01:50.926Z,14.11
2022-09-30T07:04:20.546Z,14.25
2022-09-30T07:06:48.603Z,14.23
2022-09-30T07:09:17.860Z,14.21
2022-09-30T07:11:46.015Z,14.24
2022-09-30T07:14:14.526Z,14.40
2022-09-30T07:16:44.808Z,14.67
2022-09-30T07:19:14.675Z,14.99
2022-09-30T07:21:42.721Z,15.51
2022-09-30T07:24:11.677Z,16.10
2022-09-30T07:26:40.214Z,16.58
2022-09-30T07:29:08.312Z,16.84
2022-09-30T07:31:36.606Z,17.08
2022-09-30T07:34:07.704Z,17.05
2022-09-30T07:36:38.296Z,17.08
2022-09-30T07:39:09.157Z,17.16
2022-09-30T07:41:39.615Z,17.15
2022-09-30T07:44:12.294Z,17.13
2022-09-30T07:46:40.630Z,17.15
2022-09-30T07:49:13.512Z,17.21
2022-09-30T07:51:45.523Z,17.50
2022-09-30T07:54:15.649Z,17.77
2022-09-30T07:57:09.395Z,17.90
2022-09-30T07:59:34.628Z,18.08
2022-09-30T08:02:02.856Z,18.24
2022-09-30T08:04:31.178Z,18.58
2022-09-30T08:07:02.701Z,18.81
2022-09-30T08:09:31.799Z,18.96
2022-09-30T08:12:00.110Z,19.25
2022-09-30T08:14:29.199Z,19.45
2022-09-30T08:16:58.555Z,19.58
2022-09-30T08:19:28.960Z,19.58
2022-09-30T08:21:57.608Z,19.48
2022-09-30T08:24:27.982Z,19.45
2022-09-30T08:26:56.692Z,19.47
2022-09-30T08:32:13.053Z,19.76
2022-09-30T08:34:41.101Z,19.92
2022-09-30T08:37:10.264Z,20.19
2022-09-30T08:39:40.085Z,20.55
2022-09-30T08:42:36.841Z,20.75
2022-09-30T08:45:16.453Z,20.69
2022-09-30T08:47:50.202Z,20.74
2022-09-30T08:50:29.236Z,20.93
2022-09-30T08:53:02.513Z,21.28
2022-09-30T08:55:39.380Z,21.76
2022-09-30T08:58:12.280Z,21.97
2022-09-30T09:00:41.809Z,22.18
2022-09-30T09:03:14.328Z,22.32
2022-09-30T09:05:54.833Z,22.60
2022-09-30T09:08:30.548Z,23.12
2022-09-30T09:11:09.071Z,23.50
2022-09-30T09:13:50.985Z,23.80
2022-09-30T09:16:25.507Z,23.97
2022-09-30T09:19:00.393Z,24.02
2022-09-30T09:21:38.029Z,23.90
2022-09-30T09:24:12.178Z,23.87
2022-09-30T09:26:41.553Z,23.90
2022-09-30T09:29:23.689Z,24.05
2022-09-30T09:31:51.842Z,24.19
2022-09-30T09:34:19.946Z,24.45
2022-09-30T09:37:03.257Z,24.62
2022-09-30T09:39:47.784Z,25.13
2022-09-30T09:42:31.067Z,25.54
2022-09-30T09:45:03.819Z,25.57
2022-09-30T09:47:32.328Z,25.69
2022-09-30T09:50:04.453Z,25.88
2022-09-30T09:52:58.325Z,26.09
2022-09-30T09:55:26.414Z,26.31
2022-09-30T09:58:11.189Z,26.42
2022-09-30T10:00:55.748Z,26.07
2022-09-30T10:03:26.594Z,26.01
2022-09-30T10:06:04.713Z,26.28
2022-09-30T10:08:34.398Z,26.43
2022-09-30T10:11:04.666Z,26.56
2022-09-30T10:13:42.253Z,26.64
2022-09-30T10:16:28.653Z,26.86
2022-09-30T10:18:56.965Z,26.75
2022-09-30T10:21:27.227Z,26.60
2022-09-30T10:23:57.520Z,26.41
2022-09-30T10:29:05.062Z,26.92
2022-09-30T10:31:36.397Z,27.25
2022-09-30T10:34:12.633Z,27.31
2022-09-30T10:36:44.701Z,27.24
2022-09-30T10:39:23.239Z,27.16
2022-09-30T10:41:52.785Z,27.17
2022-09-30T10:44:24.706Z,27.21
2022-09-30T10:46:54.675Z,27.06
2022-09-30T10:49:28.338Z,26.32
2022-09-30T10:51:57.101Z,25.53
2022-09-30T10:54:49.584Z,24.70
2022-09-30T10:57:22.174Z,24.54
2022-09-30T10:59:53.998Z,24.19
2022-09-30T11:02:31.519Z,23.70
2022-09-30T11:05:11.726Z,24.08
2022-09-30T11:07:46.230Z,25.07
2022-09-30T11:10:28.377Z,25.71
2022-09-30T11:13:01.780Z,25.46
2022-09-30T11:15:36.903Z,25.43
2022-09-30T11:18:12.950Z,25.20
2022-09-30T11:20:45.937Z,24.74
2022-09-30T11:23:21.234Z,24.46
2022-09-30T11:25:56.307Z,24.44
2022-09-30T11:28:59.620Z,23.98
2022-09-30T11:31:34.122Z,24.33
2022-09-30T11:34:16.659Z,25.09
2022-09-30T11:36:53.234Z,25.87
2022-09-30T11:39:44.568Z,26.36
2022-09-30T11:42:20.393Z,27.06
2022-09-30T11:44:50.314Z,27.72
2022-09-30T11:47:41.244Z,27.42
2022-09-30T11:50:24.363Z,27.39
2022-09-30T11:53:03.687Z,27.69
2022-09-30T11:55:45.388Z,28.12
2022-09-30T11:58:39.862Z,27.73
2022-09-30T12:01:15.669Z,27.80
2022-09-30T12:03:48.923Z,28.13
2022-09-30T12:06:23.137Z,27.73
2022-09-30T12:08:59.841Z,27.98
2022-09-30T12:11:35.121Z,28.21
2022-09-30T12:14:08.417Z,28.40
2022-09-30T12:16:38.915Z,28.49
2022-09-30T12:19:16.395Z,27.57
2022-09-30T12:21:53.253Z,26.80
2022-09-30T12:24:29.882Z,26.69
2022-09-30T12:26:59.095Z,26.58
2022-09-30T12:29:49.019Z,26.46
2022-09-30T12:33:13.829Z,26.12
2022-09-30T12:36:15.160Z,25.79
2022-09-30T12:39:25.978Z,25.12
2022-09-30T12:42:07.215Z,24.36
2022-09-30T12:45:07.949Z,24.05
2022-09-30T12:47:45.879Z,23.83
2022-09-30T12:50:17.205Z,23.71
2022-09-30T12:52:45.710Z,24.01
2022-09-30T12:55:25.621Z,24.13
2022-09-30T12:57:54.560Z,24.15
2022-09-30T13:00:25.232Z,24.17
2022-09-30T13:02:58.010Z,24.30
2022-09-30T13:05:55.071Z,24.18
2022-09-30T13:08:44.239Z,24.13
2022-09-30T13:11:42.630Z,23.91
2022-09-30T13:14:25.069Z,23.67
2022-09-30T13:17:25.522Z,23.42
2022-09-30T13:19:55.919Z,23.21
2022-09-30T13:22:58.184Z,23.14
2022-09-30T13:25:26.590Z,23.36
2022-09-30T13:28:34.158Z,23.53
2022-09-30T13:31:25.429Z,23.82
2022-09-30T13:34:11.346Z,24.05
2022-09-30T13:36:57.789Z,24.05
2022-09-30T13:39:29.054Z,23.87
2022-09-30T13:42:07.388Z,23.81
2022-09-30T13:44:45.825Z,23.80
2022-09-30T13:47:26.386Z,23.75
2022-09-30T13:50:01.326Z,23.64
2022-09-30T13:52:32.614Z,23.67
2022-09-30T13:55:06.649Z,23.70
2022-09-30T13:57:47.778Z,23.55
2022-09-30T14:00:18.750Z,23.27
2022-09-30T14:03:07.074Z,23.32
2022-09-30T14:05:56.857Z,23.60
2022-09-30T14:08:48.065Z,23.57
2022-09-30T14:11:39.222Z,23.46
2022-09-30T14:14:23.100Z,23.62
2022-09-30T14:17:18.051Z,23.65
2022-09-30T14:20:00.315Z,23.52
2022-09-30T14:22:30.581Z,23.45
2022-09-30T14:24:59.214Z,23.39
2022-09-30T14:27:49.525Z,23.25
2022-09-30T14:30:21.066Z,23.13
2022-09-30T14:32:52.033Z,23.17
2022-09-30T14:35:23.445Z,23.30
2022-09-30T14:37:53.750Z,23.45
2022-09-30T14:40:26.975Z,23.46
2022-09-30T14:42:59.355Z,23.46
2022-09-30T14:45:30.139Z,23.30
2022-09-30T14:48:02.577Z,23.12
2022-09-30T14:50:38.015Z,22.88
2022-09-30T14:53:06.757Z,22.71
2022-09-30T14:55:38.040Z,22.64
2022-09-30T14:58:26.854Z,22.41
2022-09-30T15:01:02.805Z,22.29
2022-09-30T15:03:33.392Z,22.36
2022-09-30T15:06:03.257Z,22.47
2022-09-30T15:08:31.751Z,22.57
2022-09-30T15:10:59.862Z,22.70
2022-09-30T15:13:31.231Z,22.70
2022-09-30T15:15:59.609Z,22.69
2022-09-30T15:18:33.074Z,22.67
2022-09-30T15:21:13.303Z,22.50
2022-09-30T15:23:44.006Z,22.43
2022-09-30T15:26:13.845Z,22.32
2022-09-30T15:28:41.941Z,22.17
2022-09-30T15:31:23.390Z,22.08
2022-09-30T15:34:05.492Z,22.06
2022-09-30T15:36:36.990Z,22.02
2022-09-30T15:39:07.027Z,22.01
2022-09-30T15:41:41.154Z,21.96
2022-09-30T15:44:17.970Z,21.87
2022-09-30T15:47:03.169Z,21.72
2022-09-30T15:49:35.102Z,21.70
2022-09-30T15:52:30.534Z,21.69
2022-09-30T15:54:59.333Z,21.65
2022-09-30T15:57:45.562Z,21.61
2022-09-30T16:00:34.681Z,21.50
2022-09-30T16:03:26.017Z,21.46
2022-09-30T16:05:54.677Z,21.51
2022-09-30T16:08:28.446Z,21.54
2022-09-30T16:10:59.167Z,21.48
2022-09-30T16:13:30.783Z,21.39
2022-09-30T16:15:59.509Z,21.32
2022-09-30T16:18:32.668Z,21.30
2022-09-30T16:21:05.366Z,21.22
2022-09-30T16:23:37.658Z,21.07
2022-09-30T16:26:24.462Z,21.04
2022-09-30T16:28:53.582Z,21.01
2022-09-30T16:31:21.821Z,20.91
2022-09-30T16:33:49.945Z,20.87
2022-09-30T16:36:18.044Z,20.81
2022-09-30T16:38:47.455Z,20.80
2022-09-30T16:41:15.619Z,20.73
2022-09-30T16:43:44.661Z,20.63
2022-09-30T16:46:13.622Z,20.57
2022-09-30T16:48:41.717Z,20.49
2022-09-30T16:51:15.457Z,20.44
2022-09-30T16:53:44.071Z,20.37
2022-09-30T16:56:17.411Z,20.27
2022-09-30T16:58:46.033Z,20.22
2022-09-30T17:01:20.469Z,20.14
2022-09-30T17:03:49.126Z,20.13
2022-09-30T17:06:18.998Z,20.07
2022-09-30T17:08:49.477Z,20.02
2022-09-30T17:11:19.582Z,20.04
2022-09-30T17:13:47.765Z,20.01
2022-09-30T17:16:15.819Z,19.99
2022-09-30T17:18:43.851Z,20.01
2022-09-30T17:21:12.044Z,19.98
2022-09-30T17:23:40.792Z,19.94
2022-09-30T17:26:08.867Z,19.88
2022-09-30T17:28:38.368Z,19.85
2022-09-30T17:31:07.023Z,19.80
2022-09-30T17:33:37.253Z,19.56
2022-09-30T17:36:07.632Z,19.46
2022-09-30T17:38:36.040Z,19.59
2022-09-30T17:41:22.432Z,19.55
2022-09-30T17:43:52.018Z,19.52
2022-09-30T17:46:23.550Z,19.48
2022-09-30T17:48:56.295Z,19.45
2022-09-30T17:51:24.542Z,19.39
2022-09-30T17:53:52.539Z,19.38
2022-09-30T17:56:22.722Z,19.30
2022-09-30T17:58:52.391Z,19.26
2022-09-30T18:01:22.332Z,19.23
2022-09-30T18:03:53.033Z,19.18
2022-09-30T18:06:21.485Z,19.14
2022-09-30T18:08:49.697Z,19.08
2022-09-30T18:11:21.154Z,19.00
2022-09-30T18:13:55.098Z,19.02
2022-09-30T18:16:24.540Z,18.97
2022-09-30T18:18:52.878Z,18.95
2022-09-30T18:21:20.997Z,18.91
2022-09-30T18:23:53.290Z,18.83
2022-09-30T18:26:24.033Z,18.79
2022-09-30T18:28:54.158Z,18.77
2022-09-30T18:31:28.541Z,18.70
2022-09-30T18:33:57.080Z,18.65
2022-09-30T18:36:26.648Z,18.63
2022-09-30T18:38:58.706Z,18.61
2022-09-30T18:41:27.859Z,18.59
2022-09-30T18:44:02.416Z,18.44
2022-09-30T18:46:31.490Z,18.40
2022-09-30T18:48:59.702Z,18.39
2022-09-30T18:51:29.216Z,18.40
2022-09-30T18:53:59.420Z,18.37
2022-09-30T18:56:31.424Z,18.30
2022-09-30T18:59:03.607Z,18.29
2022-09-30T19:01:33.156Z,18.28
2022-09-30T19:04:03.875Z,18.26
2022-09-30T19:06:32.134Z,18.23
2022-09-30T19:09:00.349Z,18.22
2022-09-30T19:11:30.573Z,18.17
2022-09-30T19:14:02.530Z,18.13
2022-09-30T19:16:35.349Z,18.11
2022-09-30T19:19:08.186Z,18.11
2022-09-30T19:21:36.246Z,18.10
2022-09-30T19:24:05.410Z,18.05
2022-09-30T19:26:34.394Z,18.06
2022-09-30T19:29:05.356Z,18.02
2022-09-30T19:31:35.003Z,18.00
2022-09-30T19:34:04.049Z,17.98
2022-09-30T19:36:38.258Z,18.00
2022-09-30T19:39:12.176Z,17.98
2022-09-30T19:41:40.810Z,18.05
2022-09-30T19:44:10.207Z,18.06
2022-09-30T19:46:38.294Z,18.05
2022-09-30T19:49:06.328Z,18.03
2022-09-30T19:51:34.798Z,18.02
2022-09-30T19:54:07.304Z,17.94
2022-09-30T19:56:36.356Z,17.98
2022-09-30T19:59:05.281Z,17.97
2022-09-30T20:01:35.657Z,17.80
2022-09-30T20:04:05.356Z,17.76
2022-09-30T20:06:34.683Z,17.72
2022-09-30T20:09:05.732Z,17.91
2022-09-30T20:11:36.392Z,17.95
2022-09-30T20:14:23.897Z,17.98
2022-09-30T20:16:54.443Z,17.92
2022-09-30T20:19:23.107Z,17.99
2022-09-30T20:21:51.809Z,17.97
2022-09-30T20:24:20.006Z,17.99
2022-09-30T20:26:50.218Z,17.95
2022-09-30T20:29:20.506Z,18.03
2022-09-30T20:31:50.416Z,18.07
2022-09-30T20:34:20.225Z,18.07
2022-09-30T20:36:48.463Z,18.09
2022-09-30T20:39:16.550Z,18.13
2022-09-30T20:41:46.161Z,18.17
2022-09-30T20:44:16.099Z,18.19
2022-09-30T20:46:44.122Z,18.22
2022-09-30T20:49:12.142Z,18.18
2022-09-30T20:51:41.521Z,18.19
2022-09-30T20:54:10.482Z,18.20
2022-09-30T20:57:05.380Z,18.25
2022-09-30T20:59:26.581Z,18.26
2022-09-30T21:01:54.609Z,18.26
2022-09-30T21:04:22.682Z,18.28
2022-09-30T21:06:52.056Z,18.29
2022-09-30T21:09:20.077Z,18.29
2022-09-30T21:11:48.075Z,18.32
2022-09-30T21:14:19.360Z,18.33
2022-09-30T21:16:47.425Z,18.28
2022-09-30T21:19:15.437Z,18.27
2022-09-30T21:21:43.452Z,18.30
2022-09-30T21:24:16.034Z,18.32
2022-09-30T21:26:44.310Z,18.30
2022-09-30T21:29:12.285Z,18.29
2022-09-30T21:31:40.508Z,18.33
2022-09-30T21:34:08.537Z,18.33
2022-09-30T21:36:36.565Z,18.35
2022-09-30T21:39:04.609Z,18.32
2022-09-30T21:41:35.723Z,18.33
2022-09-30T21:44:04.344Z,18.36
2022-09-30T21:46:35.596Z,18.35
2022-09-30T21:49:08.023Z,18.33
2022-09-30T21:51:36.503Z,18.37
2022-09-30T21:54:04.574Z,18.38
2022-09-30T21:56:33.934Z,18.40
2022-09-30T21:59:01.922Z,18.41
2022-09-30T22:01:30.591Z,18.42
2022-09-30T22:03:58.970Z,18.43
2022-09-30T22:06:28.534Z,18.44
2022-09-30T22:08:56.589Z,18.49
2022-09-30T22:11:25.223Z,18.49
2022-09-30T22:13:56.952Z,18.54
2022-09-30T22:16:27.295Z,18.56
2022-09-30T22:18:57.404Z,18.57
2022-09-30T22:21:26.856Z,18.50
2022-09-30T22:23:55.140Z,18.56
2022-09-30T22:26:24.649Z,18.57
2022-09-30T22:28:57.261Z,18.57
2022-09-30T22:31:27.970Z,18.62
2022-09-30T22:34:16.117Z,18.63
2022-09-30T22:37:01.787Z,18.63
2022-09-30T22:39:30.575Z,18.64
2022-09-30T22:41:59.699Z,18.61
2022-09-30T22:44:33.306Z,18.64
2022-09-30T22:47:01.997Z,18.69
2022-09-30T22:49:32.529Z,18.65
2022-09-30T22:52:01.931Z,18.68
2022-09-30T22:54:30.601Z,18.66
2022-09-30T22:57:00.180Z,18.65
2022-09-30T22:59:30.724Z,18.64
2022-09-30T23:01:58.868Z,18.63
2022-09-30T23:04:27.508Z,18.61
2022-09-30T23:06:56.462Z,18.59
2022-09-30T23:09:25.173Z,18.57
2022-09-30T23:11:57.012Z,18.52
2022-09-30T23:14:25.559Z,18.56
2022-09-30T23:16:55.004Z,18.58
2022-09-30T23:19:23.105Z,18.63
2022-09-30T23:21:51.122Z,18.63
2022-09-30T23:24:19.187Z,18.61
2022-09-30T23:26:47.209Z,18.61
2022-09-30T23:29:15.893Z,18.55
2022-09-30T23:31:43.885Z,18.52
2022-09-30T23:34:13.351Z,18.55
2022-09-30T23:36:41.569Z,18.58
2022-09-30T23:39:14.442Z,18.53
2022-09-30T23:41:46.348Z,18.57
2022-09-30T23:44:14.752Z,18.49
2022-09-30T23:47:03.289Z,18.49
2022-09-30T23:49:35.821Z,18.42
2022-09-30T23:52:04.982Z,18.39
2022-09-30T23:54:34.180Z,18.38
2022-09-30T23:57:03.169Z,18.38
2022-09-30T23:59:31.401Z,18.30
